createdAt,value
2023-05-08T05:00:35.230Z,19.70
2023-05-08T05:03:22.075Z,19.25
2023-05-08T05:06:08.763Z,18.95
2023-05-08T05:08:55.264Z,19.98
2023-05-08T05:11:41.530Z,21.05
2023-05-08T05:14:28.354Z,18.98
2023-05-08T07:13:48.922Z,25.25
2023-05-08T07:16:37.590Z,27.67
2023-05-08T07:19:24.924Z,29.00
2023-05-08T07:22:11.122Z,27.85
2023-05-08T07:24:57.805Z,28.83
2023-05-08T07:27:44.155Z,27.65
2023-05-08T07:30:32.045Z,29.48
2023-05-08T07:33:18.647Z,27.15
2023-05-08T07:36:05.495Z,30.50
2023-05-08T07:38:52.432Z,30.98
2023-05-08T07:41:40.940Z,30.88
2023-05-08T07:44:27.377Z,33.60
2023-05-08T07:47:14.852Z,34.08
2023-05-08T07:50:01.848Z,33.47
2023-05-08T07:52:50.369Z,35.30
2023-05-08T07:55:37.417Z,35.42
2023-05-08T07:58:24.019Z,37.40
2023-05-08T08:01:10.470Z,38.10
2023-05-08T08:03:58.100Z,37.83
2023-05-08T08:06:44.531Z,42.47
2023-05-08T08:09:31.191Z,45.75
2023-05-08T08:12:17.409Z,46.10
2023-05-08T08:15:05.216Z,46.85
2023-05-08T08:17:52.386Z,44.92
2023-05-08T08:20:40.103Z,47.45
2023-05-08T08:23:26.618Z,46.65
2023-05-08T08:26:13.132Z,47.97
2023-05-08T08:28:59.311Z,47.38
2023-05-08T08:31:45.707Z,47.47
2023-05-08T08:34:34.811Z,48.67
2023-05-08T08:37:22.394Z,46.42
2023-05-08T08:40:09.986Z,48.38
2023-05-08T08:42:56.568Z,49.45
2023-05-08T08:46:00.981Z,46.85
2023-05-08T08:53:41.136Z,45.17
2023-05-08T08:56:28.857Z,49.45
2023-05-08T08:59:18.208Z,49.45
2023-05-08T09:02:19.934Z,48.60
2023-05-08T09:05:11.960Z,50.05
2023-05-08T09:08:00.330Z,48.28
2023-05-08T09:10:48.389Z,48.53
2023-05-08T09:14:26.573Z,48.85
2023-05-08T09:17:12.712Z,49.13
2023-05-08T09:19:59.684Z,52.20
2023-05-08T09:22:47.381Z,50.63
2023-05-08T09:25:42.856Z,51.55
2023-05-08T09:28:31.015Z,52.00
2023-05-08T09:31:17.305Z,51.95
2023-05-08T09:34:23.449Z,49.15
2023-05-08T09:37:13.864Z,49.00
2023-05-08T09:40:18.600Z,49.03
2023-05-08T09:43:13.920Z,46.63
2023-05-08T09:46:21.109Z,48.17
2023-05-08T09:49:07.628Z,48.42
2023-05-08T09:51:55.364Z,46.65
2023-05-08T09:54:42.240Z,48.13
2023-05-08T09:57:29.886Z,51.33
2023-05-08T10:00:16.681Z,52.28
2023-05-08T10:03:04.930Z,50.22
2023-05-08T10:05:52.301Z,49.95
2023-05-08T10:08:38.495Z,51.13
2023-05-08T10:11:24.804Z,49.60
2023-05-08T10:14:11.184Z,49.25
2023-05-08T12:02:07.607Z,33.83
2023-05-08T12:04:55.518Z,36.33
2023-05-08T12:07:52.778Z,32.65
2023-05-08T12:10:51.429Z,33.38
2023-05-08T12:13:37.811Z,33.67
2023-05-08T12:16:28.445Z,30.95
2023-05-08T12:19:16.807Z,31.98
2023-05-08T12:25:45.580Z,33.78
2023-05-08T13:00:24.154Z,29.33
2023-05-08T13:03:36.487Z,26.58
2023-05-08T13:06:23.444Z,26.23
2023-05-08T13:09:09.905Z,26.30
2023-05-08T13:33:49.273Z,25.42
2023-05-08T13:36:40.274Z,26.27
2023-05-08T13:39:26.618Z,25.98
2023-05-08T13:42:13.087Z,26.48
2023-05-08T13:44:59.360Z,27.23
2023-05-08T13:47:46.504Z,28.20
2023-05-08T13:50:33.941Z,26.88
2023-05-08T14:42:52.444Z,28.33
2023-05-08T14:45:38.811Z,29.00
2023-05-08T14:48:25.076Z,28.83
2023-05-08T14:51:12.140Z,29.83
2023-05-08T14:54:17.416Z,26.98
2023-05-08T14:57:06.709Z,28.95
2023-05-08T14:59:56.120Z,27.67
2023-05-08T15:02:55.656Z,30.08
2023-05-08T15:05:41.805Z,29.00
2023-05-08T15:08:36.823Z,30.05
2023-05-08T15:11:24.460Z,30.30
2023-05-08T15:14:10.978Z,31.67
2023-05-08T15:16:57.186Z,30.92
2023-05-08T15:19:43.702Z,33.22
2023-05-08T15:33:57.869Z,36.60
2023-05-08T15:36:44.200Z,41.50
2023-05-08T15:39:30.278Z,43.42
2023-05-08T17:32:33.959Z,21.88
2023-05-08T17:35:39.087Z,21.42
2023-05-08T17:38:57.017Z,20.13
2023-05-08T17:51:36.997Z,20.38
2023-05-08T17:58:57.879Z,21.13
2023-05-08T18:02:05.874Z,22.58
2023-05-08T18:04:53.226Z,21.42
2023-05-08T18:08:40.042Z,21.23
2023-05-08T18:11:31.486Z,21.27
2023-05-08T18:14:21.591Z,21.17
2023-05-08T18:17:08.317Z,22.85
2023-05-08T18:20:56.770Z,22.02
2023-05-08T18:23:42.946Z,22.20
2023-05-08T18:26:52.744Z,23.38
2023-05-08T18:29:39.269Z,22.70
2023-05-08T18:32:27.516Z,23.45
2023-05-08T18:35:14.022Z,22.05
2023-05-08T18:38:00.399Z,25.38
2023-05-08T18:40:47.815Z,25.10
2023-05-08T18:43:41.359Z,25.50
2023-05-08T18:46:30.873Z,26.30
2023-05-08T18:49:17.367Z,26.48
2023-05-08T18:52:03.537Z,26.00
2023-05-08T18:54:49.910Z,26.10
2023-05-08T18:57:36.593Z,25.85
2023-05-08T19:04:23.447Z,27.67
2023-05-08T19:07:58.220Z,25.95
2023-05-08T19:10:45.377Z,25.05
2023-05-08T19:13:31.712Z,27.63
2023-05-08T19:16:18.416Z,28.15
2023-05-08T19:19:04.492Z,26.08
2023-05-08T19:21:51.830Z,27.08
2023-05-08T19:24:40.174Z,26.50
2023-05-08T19:27:28.897Z,29.55
2023-05-08T19:30:15.534Z,28.42
2023-05-08T19:33:13.718Z,28.05
2023-05-08T19:36:02.753Z,30.40
2023-05-08T19:38:48.890Z,28.17
2023-05-08T19:41:36.730Z,31.33
2023-05-08T19:44:23.352Z,27.90
2023-05-08T19:47:09.483Z,29.27
2023-05-08T19:49:56.033Z,29.38
2023-05-08T19:52:42.443Z,29.10
2023-05-08T19:55:28.994Z,30.40
2023-05-08T19:58:17.460Z,30.75
2023-05-08T22:02:27.310Z,27.80
2023-05-08T22:05:14.481Z,29.40
2023-05-08T22:08:01.323Z,29.08
2023-05-08T22:10:47.884Z,28.58
2023-05-08T22:13:34.079Z,31.33
